sensor_id;sensor_type;location;lat;lon;timestamp;P1;durP1;ratioP1;P2;durP2;ratioP2
52574;SDS011;38468;48.114;-1.684;2022-09-23T00:00:39;5.68;;;2.55;;
52574;SDS011;38468;48.114;-1.684;2022-09-23T00:02:41;4.50;;;3.28;;
52574;SDS011;38468;48.114;-1.684;2022-09-23T00:04:46;3.08;;;2.83;;
52574;SDS011;38468;48.114;-1.684;2022-09-23T00:06:47;5.30;;;3.33;;
52574;SDS011;38468;48.114;-1.684;2022-09-23T00:08:48;4.55;;;2.40;;
52574;SDS011;38468;48.114;-1.684;2022-09-23T00:10:49;3.80;;;3.22;;
52574;SDS011;38468;48.114;-1.684;2022-09-23T00:12:50;4.93;;;2.20;;
52574;SDS011;38468;48.114;-1.684;2022-09-23T00:14:50;2.95;;;2.75;;
52574;SDS011;38468;48.114;-1.684;2022-09-23T00:16:51;3.25;;;2.80;;
52574;SDS011;38468;48.114;-1.684;2022-09-23T00:18:52;3.78;;;2.63;;
52574;SDS011;38468;48.114;-1.684;2022-09-23T00:20:52;7.88;;;2.95;;
52574;SDS011;38468;48.114;-1.684;2022-09-23T00:22:53;3.42;;;2.53;;
52574;SDS011;38468;48.114;-1.684;2022-09-23T00:24:54;2.28;;;2.00;;
52574;SDS011;38468;48.114;-1.684;2022-09-23T00:26:54;3.95;;;2.72;;
52574;SDS011;38468;48.114;-1.684;2022-09-23T00:28:55;5.55;;;2.33;;
52574;SDS011;38468;48.114;-1.684;2022-09-23T00:30:56;2.80;;;2.50;;
52574;SDS011;38468;48.114;-1.684;2022-09-23T00:33:03;10.10;;;3.10;;
52574;SDS011;38468;48.114;-1.684;2022-09-23T00:35:04;7.03;;;2.80;;
52574;SDS011;38468;48.114;-1.684;2022-09-23T00:37:05;5.80;;;2.67;;
52574;SDS011;38468;48.114;-1.684;2022-09-23T00:39:06;5.18;;;3.05;;
52574;SDS011;38468;48.114;-1.684;2022-09-23T00:41:06;5.20;;;3.20;;
52574;SDS011;38468;48.114;-1.684;2022-09-23T00:43:08;5.32;;;2.88;;
52574;SDS011;38468;48.114;-1.684;2022-09-23T00:45:11;5.80;;;3.25;;
52574;SDS011;38468;48.114;-1.684;2022-09-23T00:49:25;3.25;;;2.60;;
52574;SDS011;38468;48.114;-1.684;2022-09-23T00:51:31;5.05;;;2.63;;
52574;SDS011;38468;48.114;-1.684;2022-09-23T00:53:35;3.30;;;2.28;;
52574;SDS011;38468;48.114;-1.684;2022-09-23T00:55:50;7.68;;;3.00;;
52574;SDS011;38468;48.114;-1.684;2022-09-23T00:57:58;5.35;;;2.95;;
52574;SDS011;38468;48.114;-1.684;2022-09-23T01:00:02;4.68;;;2.67;;
52574;SDS011;38468;48.114;-1.684;2022-09-23T01:02:04;5.65;;;2.83;;
52574;SDS011;38468;48.114;-1.684;2022-09-23T01:04:06;5.68;;;3.40;;
52574;SDS011;38468;48.114;-1.684;2022-09-23T01:06:07;3.80;;;3.25;;
52574;SDS011;38468;48.114;-1.684;2022-09-23T01:08:09;3.42;;;2.83;;
52574;SDS011;38468;48.114;-1.684;2022-09-23T01:10:12;4.85;;;3.05;;
52574;SDS011;38468;48.114;-1.684;2022-09-23T01:17:11;3.67;;;2.50;;
52574;SDS011;38468;48.114;-1.684;2022-09-23T01:22:09;4.05;;;2.40;;
52574;SDS011;38468;48.114;-1.684;2022-09-23T01:31:09;11.20;;;3.25;;
52574;SDS011;38468;48.114;-1.684;2022-09-23T01:40:33;4.75;;;2.45;;
52574;SDS011;38468;48.114;-1.684;2022-09-23T01:47:28;9.15;;;3.33;;
52574;SDS011;38468;48.114;-1.684;2022-09-23T01:49:37;4.57;;;2.60;;
52574;SDS011;38468;48.114;-1.684;2022-09-23T01:51:59;4.03;;;2.30;;
52574;SDS011;38468;48.114;-1.684;2022-09-23T01:56:28;3.20;;;2.42;;
52574;SDS011;38468;48.114;-1.684;2022-09-23T01:58:41;11.18;;;3.25;;
52574;SDS011;38468;48.114;-1.684;2022-09-23T02:00:52;3.03;;;2.53;;
52574;SDS011;38468;48.114;-1.684;2022-09-23T02:03:03;3.05;;;2.75;;
52574;SDS011;38468;48.114;-1.684;2022-09-23T02:05:23;2.97;;;2.67;;
52574;SDS011;38468;48.114;-1.684;2022-09-23T02:07:39;10.30;;;3.35;;
52574;SDS011;38468;48.114;-1.684;2022-09-23T02:09:47;8.85;;;3.75;;
52574;SDS011;38468;48.114;-1.684;2022-09-23T02:11:57;2.85;;;2.60;;
52574;SDS011;38468;48.114;-1.684;2022-09-23T02:14:09;3.80;;;3.00;;
52574;SDS011;38468;48.114;-1.684;2022-09-23T02:16:44;3.38;;;2.80;;
52574;SDS011;38468;48.114;-1.684;2022-09-23T02:18:57;3.70;;;2.83;;
52574;SDS011;38468;48.114;-1.684;2022-09-23T02:21:02;4.82;;;3.35;;
52574;SDS011;38468;48.114;-1.684;2022-09-23T02:23:14;15.57;;;3.67;;
52574;SDS011;38468;48.114;-1.684;2022-09-23T02:25:19;4.05;;;2.90;;
52574;SDS011;38468;48.114;-1.684;2022-09-23T02:27:31;4.57;;;3.42;;
52574;SDS011;38468;48.114;-1.684;2022-09-23T02:31:54;3.20;;;2.95;;
52574;SDS011;38468;48.114;-1.684;2022-09-23T02:34:01;7.45;;;3.70;;
52574;SDS011;38468;48.114;-1.684;2022-09-23T02:36:22;6.47;;;3.05;;
52574;SDS011;38468;48.114;-1.684;2022-09-23T02:38:53;4.45;;;3.35;;
52574;SDS011;38468;48.114;-1.684;2022-09-23T02:41:08;5.10;;;3.53;;
52574;SDS011;38468;48.114;-1.684;2022-09-23T02:45:18;6.22;;;2.47;;
52574;SDS011;38468;48.114;-1.684;2022-09-23T02:47:19;4.55;;;3.30;;
52574;SDS011;38468;48.114;-1.684;2022-09-23T02:49:28;5.30;;;2.88;;
52574;SDS011;38468;48.114;-1.684;2022-09-23T02:51:30;9.93;;;3.10;;
52574;SDS011;38468;48.114;-1.684;2022-09-23T02:53:36;4.13;;;3.05;;
52574;SDS011;38468;48.114;-1.684;2022-09-23T02:55:38;6.93;;;3.53;;
52574;SDS011;38468;48.114;-1.684;2022-09-23T02:57:40;4.28;;;2.40;;
52574;SDS011;38468;48.114;-1.684;2022-09-23T02:59:41;5.40;;;3.55;;
52574;SDS011;38468;48.114;-1.684;2022-09-23T03:09:01;2.55;;;2.35;;
52574;SDS011;38468;48.114;-1.684;2022-09-23T03:11:11;5.50;;;4.03;;
52574;SDS011;38468;48.114;-1.684;2022-09-23T03:15:53;5.13;;;3.58;;
52574;SDS011;38468;48.114;-1.684;2022-09-23T03:20:23;4.30;;;3.30;;
52574;SDS011;38468;48.114;-1.684;2022-09-23T03:22:32;3.45;;;2.47;;
52574;SDS011;38468;48.114;-1.684;2022-09-23T03:24:39;9.73;;;3.40;;
52574;SDS011;38468;48.114;-1.684;2022-09-23T03:26:44;4.22;;;3.10;;
52574;SDS011;38468;48.114;-1.684;2022-09-23T03:28:46;5.68;;;2.65;;
52574;SDS011;38468;48.114;-1.684;2022-09-23T03:30:49;8.82;;;2.72;;
52574;SDS011;38468;48.114;-1.684;2022-09-23T03:32:51;3.60;;;3.25;;
52574;SDS011;38468;48.114;-1.684;2022-09-23T03:34:54;12.13;;;3.63;;
52574;SDS011;38468;48.114;-1.684;2022-09-23T03:36:59;7.75;;;3.03;;
52574;SDS011;38468;48.114;-1.684;2022-09-23T03:41:25;4.72;;;2.90;;
52574;SDS011;38468;48.114;-1.684;2022-09-23T03:43:30;4.10;;;3.43;;
52574;SDS011;38468;48.114;-1.684;2022-09-23T03:45:31;6.10;;;3.30;;
52574;SDS011;38468;48.114;-1.684;2022-09-23T03:47:35;12.30;;;3.60;;
52574;SDS011;38468;48.114;-1.684;2022-09-23T03:49:38;3.13;;;2.80;;
52574;SDS011;38468;48.114;-1.684;2022-09-23T03:51:40;3.17;;;2.88;;
52574;SDS011;38468;48.114;-1.684;2022-09-23T03:53:41;4.32;;;3.92;;
52574;SDS011;38468;48.114;-1.684;2022-09-23T03:55:41;5.57;;;3.35;;
52574;SDS011;38468;48.114;-1.684;2022-09-23T03:57:42;7.38;;;3.35;;
52574;SDS011;38468;48.114;-1.684;2022-09-23T03:59:44;3.53;;;2.28;;
52574;SDS011;38468;48.114;-1.684;2022-09-23T04:01:44;5.88;;;3.10;;
52574;SDS011;38468;48.114;-1.684;2022-09-23T04:03:45;4.93;;;3.10;;
52574;SDS011;38468;48.114;-1.684;2022-09-23T04:05:46;10.32;;;2.85;;
52574;SDS011;38468;48.114;-1.684;2022-09-23T04:07:47;2.95;;;2.22;;
52574;SDS011;38468;48.114;-1.684;2022-09-23T04:09:50;5.07;;;2.42;;
52574;SDS011;38468;48.114;-1.684;2022-09-23T04:11:50;3.85;;;3.00;;
52574;SDS011;38468;48.114;-1.684;2022-09-23T04:13:52;5.43;;;2.70;;
52574;SDS011;38468;48.114;-1.684;2022-09-23T04:15:54;4.85;;;2.45;;
52574;SDS011;38468;48.114;-1.684;2022-09-23T04:17:54;3.25;;;2.10;;
52574;SDS011;38468;48.114;-1.684;2022-09-23T04:19:55;5.40;;;2.20;;
52574;SDS011;38468;48.114;-1.684;2022-09-23T04:21:56;3.50;;;2.50;;
52574;SDS011;38468;48.114;-1.684;2022-09-23T04:23:56;2.63;;;2.00;;
52574;SDS011;38468;48.114;-1.684;2022-09-23T04:25:57;6.65;;;2.03;;
52574;SDS011;38468;48.114;-1.684;2022-09-23T04:27:58;2.90;;;2.70;;
52574;SDS011;38468;48.114;-1.684;2022-09-23T04:29:58;2.80;;;2.53;;
52574;SDS011;38468;48.114;-1.684;2022-09-23T04:31:59;4.00;;;2.60;;
52574;SDS011;38468;48.114;-1.684;2022-09-23T04:34:00;3.53;;;2.50;;
52574;SDS011;38468;48.114;-1.684;2022-09-23T04:36:01;4.22;;;2.78;;
52574;SDS011;38468;48.114;-1.684;2022-09-23T04:38:01;4.72;;;2.90;;
52574;SDS011;38468;48.114;-1.684;2022-09-23T04:40:02;5.45;;;3.30;;
52574;SDS011;38468;48.114;-1.684;2022-09-23T04:42:03;5.65;;;2.65;;
52574;SDS011;38468;48.114;-1.684;2022-09-23T04:44:04;2.80;;;2.60;;
52574;SDS011;38468;48.114;-1.684;2022-09-23T04:46:05;2.83;;;2.55;;
52574;SDS011;38468;48.114;-1.684;2022-09-23T04:48:07;3.60;;;2.65;;
52574;SDS011;38468;48.114;-1.684;2022-09-23T04:52:09;2.97;;;2.75;;
52574;SDS011;38468;48.114;-1.684;2022-09-23T04:54:11;4.38;;;2.80;;
52574;SDS011;38468;48.114;-1.684;2022-09-23T04:56:14;4.65;;;3.35;;
52574;SDS011;38468;48.114;-1.684;2022-09-23T04:58:18;4.50;;;2.03;;
52574;SDS011;38468;48.114;-1.684;2022-09-23T05:00:22;8.77;;;2.92;;
52574;SDS011;38468;48.114;-1.684;2022-09-23T05:02:23;3.27;;;2.97;;
52574;SDS011;38468;48.114;-1.684;2022-09-23T05:04:24;3.63;;;2.97;;
52574;SDS011;38468;48.114;-1.684;2022-09-23T05:06:25;3.20;;;2.58;;
52574;SDS011;38468;48.114;-1.684;2022-09-23T05:08:25;2.65;;;2.33;;
52574;SDS011;38468;48.114;-1.684;2022-09-23T05:10:26;4.00;;;3.10;;
52574;SDS011;38468;48.114;-1.684;2022-09-23T05:12:27;5.10;;;2.95;;
52574;SDS011;38468;48.114;-1.684;2022-09-23T05:14:27;6.38;;;3.20;;
52574;SDS011;38468;48.114;-1.684;2022-09-23T05:16:28;9.95;;;3.60;;
52574;SDS011;38468;48.114;-1.684;2022-09-23T05:18:29;6.85;;;3.25;;
52574;SDS011;38468;48.114;-1.684;2022-09-23T05:20:31;7.20;;;3.17;;
52574;SDS011;38468;48.114;-1.684;2022-09-23T05:22:32;4.85;;;3.55;;
52574;SDS011;38468;48.114;-1.684;2022-09-23T05:24:32;22.23;;;3.25;;
52574;SDS011;38468;48.114;-1.684;2022-09-23T05:26:33;4.15;;;3.30;;
52574;SDS011;38468;48.114;-1.684;2022-09-23T05:28:34;4.80;;;3.08;;
52574;SDS011;38468;48.114;-1.684;2022-09-23T05:30:36;3.03;;;2.83;;
52574;SDS011;38468;48.114;-1.684;2022-09-23T05:32:37;6.82;;;3.60;;
52574;SDS011;38468;48.114;-1.684;2022-09-23T05:34:37;3.97;;;2.85;;
52574;SDS011;38468;48.114;-1.684;2022-09-23T05:36:38;15.18;;;3.28;;
52574;SDS011;38468;48.114;-1.684;2022-09-23T05:38:39;4.70;;;3.38;;
52574;SDS011;38468;48.114;-1.684;2022-09-23T05:40:40;3.45;;;3.15;;
52574;SDS011;38468;48.114;-1.684;2022-09-23T05:42:40;3.60;;;2.70;;
52574;SDS011;38468;48.114;-1.684;2022-09-23T05:44:41;7.07;;;2.95;;
52574;SDS011;38468;48.114;-1.684;2022-09-23T05:46:41;6.55;;;3.97;;
52574;SDS011;38468;48.114;-1.684;2022-09-23T05:48:42;8.43;;;4.50;;
52574;SDS011;38468;48.114;-1.684;2022-09-23T05:50:49;2.70;;;2.47;;
52574;SDS011;38468;48.114;-1.684;2022-09-23T05:52:51;3.05;;;2.75;;
52574;SDS011;38468;48.114;-1.684;2022-09-23T05:54:51;4.63;;;2.78;;
52574;SDS011;38468;48.114;-1.684;2022-09-23T05:56:52;4.63;;;2.72;;
52574;SDS011;38468;48.114;-1.684;2022-09-23T05:58:54;5.63;;;2.55;;
52574;SDS011;38468;48.114;-1.684;2022-09-23T06:00:56;8.98;;;3.03;;
52574;SDS011;38468;48.114;-1.684;2022-09-23T06:02:56;6.35;;;3.17;;
52574;SDS011;38468;48.114;-1.684;2022-09-23T06:04:57;6.13;;;2.88;;
52574;SDS011;38468;48.114;-1.684;2022-09-23T06:06:58;6.70;;;4.22;;
52574;SDS011;38468;48.114;-1.684;2022-09-23T06:08:59;20.00;;;8.93;;
52574;SDS011;38468;48.114;-1.684;2022-09-23T06:11:04;5.82;;;4.05;;
52574;SDS011;38468;48.114;-1.684;2022-09-23T06:13:09;2.58;;;2.25;;
52574;SDS011;38468;48.114;-1.684;2022-09-23T06:15:10;9.38;;;3.13;;
52574;SDS011;38468;48.114;-1.684;2022-09-23T06:17:11;8.90;;;2.92;;
52574;SDS011;38468;48.114;-1.684;2022-09-23T06:19:11;5.07;;;2.53;;
52574;SDS011;38468;48.114;-1.684;2022-09-23T06:21:13;12.38;;;3.80;;
52574;SDS011;38468;48.114;-1.684;2022-09-23T06:23:15;5.78;;;3.05;;
52574;SDS011;38468;48.114;-1.684;2022-09-23T06:25:16;3.90;;;3.05;;
52574;SDS011;38468;48.114;-1.684;2022-09-23T06:29:19;7.07;;;3.35;;
52574;SDS011;38468;48.114;-1.684;2022-09-23T06:31:19;3.58;;;2.58;;
52574;SDS011;38468;48.114;-1.684;2022-09-23T06:33:20;6.97;;;3.05;;
52574;SDS011;38468;48.114;-1.684;2022-09-23T06:35:22;5.47;;;2.83;;
52574;SDS011;38468;48.114;-1.684;2022-09-23T06:37:25;10.02;;;3.25;;
52574;SDS011;38468;48.114;-1.684;2022-09-23T06:39:25;5.07;;;2.55;;
52574;SDS011;38468;48.114;-1.684;2022-09-23T06:41:26;9.27;;;2.65;;
52574;SDS011;38468;48.114;-1.684;2022-09-23T06:43:27;6.45;;;3.50;;
52574;SDS011;38468;48.114;-1.684;2022-09-23T06:45:28;18.10;;;12.02;;
52574;SDS011;38468;48.114;-1.684;2022-09-23T06:47:28;16.45;;;8.65;;
52574;SDS011;38468;48.114;-1.684;2022-09-23T06:49:29;8.85;;;5.15;;
52574;SDS011;38468;48.114;-1.684;2022-09-23T06:51:30;10.52;;;3.53;;
52574;SDS011;38468;48.114;-1.684;2022-09-23T06:53:31;3.88;;;3.38;;
52574;SDS011;38468;48.114;-1.684;2022-09-23T06:55:33;6.28;;;2.90;;
52574;SDS011;38468;48.114;-1.684;2022-09-23T06:57:33;8.13;;;3.38;;
52574;SDS011;38468;48.114;-1.684;2022-09-23T06:59:35;3.28;;;2.55;;
52574;SDS011;38468;48.114;-1.684;2022-09-23T07:01:35;4.20;;;3.53;;
52574;SDS011;38468;48.114;-1.684;2022-09-23T07:03:37;3.57;;;2.70;;
52574;SDS011;38468;48.114;-1.684;2022-09-23T07:05:38;3.70;;;3.00;;
52574;SDS011;38468;48.114;-1.684;2022-09-23T07:07:39;4.30;;;2.92;;
52574;SDS011;38468;48.114;-1.684;2022-09-23T07:09:40;4.78;;;3.45;;
52574;SDS011;38468;48.114;-1.684;2022-09-23T07:11:45;3.08;;;2.58;;
52574;SDS011;38468;48.114;-1.684;2022-09-23T07:13:49;15.65;;;9.40;;
52574;SDS011;38468;48.114;-1.684;2022-09-23T07:15:50;13.43;;;7.60;;
52574;SDS011;38468;48.114;-1.684;2022-09-23T07:19:52;7.35;;;4.68;;
52574;SDS011;38468;48.114;-1.684;2022-09-23T07:21:54;5.43;;;3.67;;
52574;SDS011;38468;48.114;-1.684;2022-09-23T07:23:54;7.85;;;3.22;;
52574;SDS011;38468;48.114;-1.684;2022-09-23T07:28:00;4.45;;;3.13;;
52574;SDS011;38468;48.114;-1.684;2022-09-23T07:30:01;6.50;;;3.15;;
52574;SDS011;38468;48.114;-1.684;2022-09-23T07:32:02;2.67;;;2.47;;
52574;SDS011;38468;48.114;-1.684;2022-09-23T07:34:02;6.95;;;3.50;;
52574;SDS011;38468;48.114;-1.684;2022-09-23T07:36:04;5.95;;;4.32;;
52574;SDS011;38468;48.114;-1.684;2022-09-23T07:38:12;6.50;;;3.33;;
52574;SDS011;38468;48.114;-1.684;2022-09-23T07:40:13;9.05;;;4.07;;
52574;SDS011;38468;48.114;-1.684;2022-09-23T07:42:13;9.43;;;3.60;;
52574;SDS011;38468;48.114;-1.684;2022-09-23T07:44:14;5.82;;;3.90;;
52574;SDS011;38468;48.114;-1.684;2022-09-23T07:46:18;3.22;;;2.97;;
52574;SDS011;38468;48.114;-1.684;2022-09-23T07:48:18;5.80;;;3.95;;
52574;SDS011;38468;48.114;-1.684;2022-09-23T07:50:19;12.80;;;6.97;;
52574;SDS011;38468;48.114;-1.684;2022-09-23T07:52:21;12.18;;;7.97;;
52574;SDS011;38468;48.114;-1.684;2022-09-23T07:54:22;5.72;;;4.50;;
52574;SDS011;38468;48.114;-1.684;2022-09-23T07:56:25;8.68;;;3.78;;
52574;SDS011;38468;48.114;-1.684;2022-09-23T07:58:27;6.15;;;3.85;;
52574;SDS011;38468;48.114;-1.684;2022-09-23T08:00:27;5.40;;;3.45;;
52574;SDS011;38468;48.114;-1.684;2022-09-23T08:02:28;5.95;;;3.63;;
52574;SDS011;38468;48.114;-1.684;2022-09-23T08:04:30;7.57;;;4.32;;
52574;SDS011;38468;48.114;-1.684;2022-09-23T08:06:32;3.83;;;3.35;;
52574;SDS011;38468;48.114;-1.684;2022-09-23T08:08:32;7.32;;;4.00;;
52574;SDS011;38468;48.114;-1.684;2022-09-23T08:10:34;3.28;;;3.00;;
52574;SDS011;38468;48.114;-1.684;2022-09-23T08:12:35;15.57;;;3.92;;
52574;SDS011;38468;48.114;-1.684;2022-09-23T08:14:35;7.75;;;4.65;;
52574;SDS011;38468;48.114;-1.684;2022-09-23T08:16:37;5.38;;;4.05;;
52574;SDS011;38468;48.114;-1.684;2022-09-23T08:18:42;7.43;;;4.63;;
52574;SDS011;38468;48.114;-1.684;2022-09-23T08:20:43;5.80;;;3.92;;
52574;SDS011;38468;48.114;-1.684;2022-09-23T08:22:48;26.75;;;5.82;;
52574;SDS011;38468;48.114;-1.684;2022-09-23T08:24:49;6.10;;;4.72;;
52574;SDS011;38468;48.114;-1.684;2022-09-23T08:26:50;6.53;;;3.95;;
52574;SDS011;38468;48.114;-1.684;2022-09-23T08:28:52;6.47;;;4.75;;
52574;SDS011;38468;48.114;-1.684;2022-09-23T08:30:54;9.63;;;4.60;;
52574;SDS011;38468;48.114;-1.684;2022-09-23T08:32:55;12.40;;;5.32;;
52574;SDS011;38468;48.114;-1.684;2022-09-23T08:34:55;8.52;;;3.78;;
52574;SDS011;38468;48.114;-1.684;2022-09-23T08:36:56;9.18;;;4.53;;
52574;SDS011;38468;48.114;-1.684;2022-09-23T08:38:57;11.45;;;5.80;;
52574;SDS011;38468;48.114;-1.684;2022-09-23T08:43:27;11.40;;;3.65;;
52574;SDS011;38468;48.114;-1.684;2022-09-23T08:45:30;5.20;;;4.22;;
52574;SDS011;38468;48.114;-1.684;2022-09-23T08:49:43;14.38;;;8.98;;
52574;SDS011;38468;48.114;-1.684;2022-09-23T08:54:30;7.90;;;3.47;;
52574;SDS011;38468;48.114;-1.684;2022-09-23T08:56:31;6.57;;;4.25;;
52574;SDS011;38468;48.114;-1.684;2022-09-23T09:01:03;6.15;;;4.13;;
52574;SDS011;38468;48.114;-1.684;2022-09-23T09:03:32;27.48;;;5.13;;
52574;SDS011;38468;48.114;-1.684;2022-09-23T09:05:35;8.18;;;4.25;;
52574;SDS011;38468;48.114;-1.684;2022-09-23T09:07:37;8.75;;;4.28;;
52574;SDS011;38468;48.114;-1.684;2022-09-23T09:09:49;5.25;;;4.55;;
52574;SDS011;38468;48.114;-1.684;2022-09-23T09:11:56;15.32;;;5.55;;
52574;SDS011;38468;48.114;-1.684;2022-09-23T09:14:12;8.05;;;4.22;;
52574;SDS011;38468;48.114;-1.684;2022-09-23T09:18:26;7.78;;;5.35;;
52574;SDS011;38468;48.114;-1.684;2022-09-23T09:25:02;12.50;;;5.15;;
52574;SDS011;38468;48.114;-1.684;2022-09-23T09:27:11;7.07;;;5.03;;
52574;SDS011;38468;48.114;-1.684;2022-09-23T09:29:14;12.85;;;5.88;;
52574;SDS011;38468;48.114;-1.684;2022-09-23T09:31:31;9.20;;;6.70;;
52574;SDS011;38468;48.114;-1.684;2022-09-23T09:33:46;9.48;;;5.28;;
52574;SDS011;38468;48.114;-1.684;2022-09-23T09:36:07;15.27;;;5.82;;
52574;SDS011;38468;48.114;-1.684;2022-09-23T09:38:20;9.63;;;6.57;;
52574;SDS011;38468;48.114;-1.684;2022-09-23T09:40:20;14.18;;;8.43;;
52574;SDS011;38468;48.114;-1.684;2022-09-23T09:42:23;15.50;;;7.00;;
52574;SDS011;38468;48.114;-1.684;2022-09-23T09:46:48;8.40;;;6.97;;
52574;SDS011;38468;48.114;-1.684;2022-09-23T09:51:17;8.73;;;5.47;;
52574;SDS011;38468;48.114;-1.684;2022-09-23T09:55:28;7.40;;;5.45;;
52574;SDS011;38468;48.114;-1.684;2022-09-23T09:57:33;12.73;;;6.43;;
52574;SDS011;38468;48.114;-1.684;2022-09-23T09:59:38;12.43;;;6.50;;
52574;SDS011;38468;48.114;-1.684;2022-09-23T10:01:42;8.25;;;5.90;;
52574;SDS011;38468;48.114;-1.684;2022-09-23T10:03:42;13.98;;;6.03;;
52574;SDS011;38468;48.114;-1.684;2022-09-23T10:07:47;8.35;;;4.60;;
52574;SDS011;38468;48.114;-1.684;2022-09-23T10:09:51;16.92;;;4.82;;
52574;SDS011;38468;48.114;-1.684;2022-09-23T10:14:17;7.90;;;5.03;;
52574;SDS011;38468;48.114;-1.684;2022-09-23T10:16:18;10.68;;;6.22;;
52574;SDS011;38468;48.114;-1.684;2022-09-23T10:20:43;11.00;;;5.72;;
52574;SDS011;38468;48.114;-1.684;2022-09-23T10:22:45;14.60;;;6.03;;
52574;SDS011;38468;48.114;-1.684;2022-09-23T10:24:47;11.43;;;5.82;;
52574;SDS011;38468;48.114;-1.684;2022-09-23T10:26:54;16.27;;;9.13;;
52574;SDS011;38468;48.114;-1.684;2022-09-23T10:29:22;22.10;;;12.25;;
52574;SDS011;38468;48.114;-1.684;2022-09-23T10:31:25;14.77;;;7.82;;
52574;SDS011;38468;48.114;-1.684;2022-09-23T10:33:34;25.73;;;8.63;;
52574;SDS011;38468;48.114;-1.684;2022-09-23T10:35:52;12.40;;;8.00;;
52574;SDS011;38468;48.114;-1.684;2022-09-23T10:38:01;12.15;;;6.20;;
52574;SDS011;38468;48.114;-1.684;2022-09-23T10:40:15;14.93;;;7.07;;
52574;SDS011;38468;48.114;-1.684;2022-09-23T10:45:32;11.85;;;6.03;;
52574;SDS011;38468;48.114;-1.684;2022-09-23T10:50:16;20.20;;;7.65;;
52574;SDS011;38468;48.114;-1.684;2022-09-23T10:59:51;14.88;;;6.63;;
52574;SDS011;38468;48.114;-1.684;2022-09-23T11:02:16;19.35;;;7.95;;
52574;SDS011;38468;48.114;-1.684;2022-09-23T11:11:47;24.00;;;12.07;;
52574;SDS011;38468;48.114;-1.684;2022-09-23T11:16:53;9.20;;;6.13;;
52574;SDS011;38468;48.114;-1.684;2022-09-23T11:24:09;9.95;;;6.75;;
52574;SDS011;38468;48.114;-1.684;2022-09-23T11:35:37;9.10;;;5.32;;
52574;SDS011;38468;48.114;-1.684;2022-09-23T11:37:36;7.97;;;6.05;;
52574;SDS011;38468;48.114;-1.684;2022-09-23T11:39:49;11.25;;;7.03;;
52574;SDS011;38468;48.114;-1.684;2022-09-23T11:41:54;17.27;;;8.40;;
52574;SDS011;38468;48.114;-1.684;2022-09-23T11:44:02;16.75;;;7.55;;
52574;SDS011;38468;48.114;-1.684;2022-09-23T11:48:48;10.60;;;5.88;;
52574;SDS011;38468;48.114;-1.684;2022-09-23T11:51:01;16.88;;;9.90;;
52574;SDS011;38468;48.114;-1.684;2022-09-23T11:53:17;13.65;;;7.72;;
52574;SDS011;38468;48.114;-1.684;2022-09-23T12:00:34;15.18;;;9.23;;
52574;SDS011;38468;48.114;-1.684;2022-09-23T12:05:21;16.33;;;8.27;;
52574;SDS011;38468;48.114;-1.684;2022-09-23T12:07:29;16.95;;;9.88;;
52574;SDS011;38468;48.114;-1.684;2022-09-23T12:10:11;8.75;;;5.95;;
52574;SDS011;38468;48.114;-1.684;2022-09-23T12:14:37;6.28;;;5.60;;
52574;SDS011;38468;48.114;-1.684;2022-09-23T12:24:15;13.85;;;6.80;;
52574;SDS011;38468;48.114;-1.684;2022-09-23T12:26:25;17.05;;;8.65;;
52574;SDS011;38468;48.114;-1.684;2022-09-23T12:28:32;16.17;;;8.80;;
52574;SDS011;38468;48.114;-1.684;2022-09-23T12:30:37;10.18;;;5.93;;
52574;SDS011;38468;48.114;-1.684;2022-09-23T12:32:42;11.10;;;5.78;;
52574;SDS011;38468;48.114;-1.684;2022-09-23T12:34:46;10.05;;;5.88;;
52574;SDS011;38468;48.114;-1.684;2022-09-23T12:36:50;12.25;;;7.53;;
52574;SDS011;38468;48.114;-1.684;2022-09-23T12:38:53;14.07;;;7.38;;
52574;SDS011;38468;48.114;-1.684;2022-09-23T12:43:27;7.95;;;5.47;;
52574;SDS011;38468;48.114;-1.684;2022-09-23T12:47:40;6.53;;;5.47;;
52574;SDS011;38468;48.114;-1.684;2022-09-23T12:49:41;12.30;;;7.30;;
52574;SDS011;38468;48.114;-1.684;2022-09-23T12:51:42;9.02;;;6.63;;
52574;SDS011;38468;48.114;-1.684;2022-09-23T12:54:22;11.70;;;5.97;;
52574;SDS011;38468;48.114;-1.684;2022-09-23T12:58:36;10.77;;;5.57;;
52574;SDS011;38468;48.114;-1.684;2022-09-23T13:00:38;9.93;;;5.50;;
52574;SDS011;38468;48.114;-1.684;2022-09-23T13:02:40;7.53;;;5.65;;
52574;SDS011;38468;48.114;-1.684;2022-09-23T13:05:17;10.18;;;6.20;;
52574;SDS011;38468;48.114;-1.684;2022-09-23T13:07:44;16.17;;;9.18;;
52574;SDS011;38468;48.114;-1.684;2022-09-23T13:09:48;18.63;;;11.52;;
52574;SDS011;38468;48.114;-1.684;2022-09-23T13:11:51;26.85;;;11.30;;
52574;SDS011;38468;48.114;-1.684;2022-09-23T13:14:00;16.00;;;9.90;;
52574;SDS011;38468;48.114;-1.684;2022-09-23T13:24:09;8.55;;;6.00;;
52574;SDS011;38468;48.114;-1.684;2022-09-23T13:26:23;12.48;;;7.38;;
52574;SDS011;38468;48.114;-1.684;2022-09-23T13:28:26;11.90;;;7.32;;
52574;SDS011;38468;48.114;-1.684;2022-09-23T13:30:32;13.75;;;5.85;;
52574;SDS011;38468;48.114;-1.684;2022-09-23T13:32:42;11.40;;;6.10;;
52574;SDS011;38468;48.114;-1.684;2022-09-23T13:34:55;16.23;;;6.57;;
52574;SDS011;38468;48.114;-1.684;2022-09-23T13:41:46;6.32;;;5.72;;
52574;SDS011;38468;48.114;-1.684;2022-09-23T13:43:49;12.50;;;7.55;;
52574;SDS011;38468;48.114;-1.684;2022-09-23T13:45:57;8.93;;;6.82;;
52574;SDS011;38468;48.114;-1.684;2022-09-23T13:48:00;10.38;;;6.35;;
52574;SDS011;38468;48.114;-1.684;2022-09-23T13:50:16;6.22;;;5.35;;
52574;SDS011;38468;48.114;-1.684;2022-09-23T13:52:21;10.35;;;7.57;;
52574;SDS011;38468;48.114;-1.684;2022-09-23T13:54:29;17.85;;;7.78;;
52574;SDS011;38468;48.114;-1.684;2022-09-23T13:56:34;10.07;;;6.68;;
52574;SDS011;38468;48.114;-1.684;2022-09-23T13:58:39;17.30;;;8.02;;
52574;SDS011;38468;48.114;-1.684;2022-09-23T14:00:43;11.10;;;6.75;;
52574;SDS011;38468;48.114;-1.684;2022-09-23T14:02:44;21.25;;;6.35;;
52574;SDS011;38468;48.114;-1.684;2022-09-23T14:04:45;7.35;;;4.82;;
52574;SDS011;38468;48.114;-1.684;2022-09-23T14:06:46;5.13;;;4.57;;
52574;SDS011;38468;48.114;-1.684;2022-09-23T14:08:48;11.85;;;5.97;;
52574;SDS011;38468;48.114;-1.684;2022-09-23T14:10:49;6.65;;;4.85;;
52574;SDS011;38468;48.114;-1.684;2022-09-23T14:12:52;13.50;;;6.03;;
52574;SDS011;38468;48.114;-1.684;2022-09-23T14:14:57;8.85;;;5.13;;
52574;SDS011;38468;48.114;-1.684;2022-09-23T14:16:57;6.95;;;5.10;;
52574;SDS011;38468;48.114;-1.684;2022-09-23T14:18:58;6.13;;;4.30;;
52574;SDS011;38468;48.114;-1.684;2022-09-23T14:20:59;10.95;;;5.20;;
52574;SDS011;38468;48.114;-1.684;2022-09-23T14:23:08;8.60;;;4.82;;
52574;SDS011;38468;48.114;-1.684;2022-09-23T14:25:12;12.15;;;3.78;;
52574;SDS011;38468;48.114;-1.684;2022-09-23T14:27:19;7.55;;;5.65;;
52574;SDS011;38468;48.114;-1.684;2022-09-23T14:29:28;9.90;;;5.75;;
52574;SDS011;38468;48.114;-1.684;2022-09-23T14:31:31;5.30;;;4.35;;
52574;SDS011;38468;48.114;-1.684;2022-09-23T14:33:32;5.68;;;4.22;;
52574;SDS011;38468;48.114;-1.684;2022-09-23T14:35:38;10.60;;;5.82;;
52574;SDS011;38468;48.114;-1.684;2022-09-23T14:37:42;7.22;;;5.00;;
52574;SDS011;38468;48.114;-1.684;2022-09-23T14:40:24;8.65;;;5.30;;
52574;SDS011;38468;48.114;-1.684;2022-09-23T14:42:28;18.30;;;6.50;;
52574;SDS011;38468;48.114;-1.684;2022-09-23T14:44:40;8.50;;;4.80;;
52574;SDS011;38468;48.114;-1.684;2022-09-23T14:46:40;8.95;;;5.00;;
52574;SDS011;38468;48.114;-1.684;2022-09-23T14:51:13;7.95;;;4.07;;
52574;SDS011;38468;48.114;-1.684;2022-09-23T14:53:35;12.23;;;5.05;;
52574;SDS011;38468;48.114;-1.684;2022-09-23T14:55:36;4.45;;;4.05;;
52574;SDS011;38468;48.114;-1.684;2022-09-23T14:57:37;7.88;;;4.20;;
52574;SDS011;38468;48.114;-1.684;2022-09-23T14:59:39;9.20;;;5.10;;
52574;SDS011;38468;48.114;-1.684;2022-09-23T15:01:58;8.93;;;5.03;;
52574;SDS011;38468;48.114;-1.684;2022-09-23T15:06:21;9.77;;;5.15;;
52574;SDS011;38468;48.114;-1.684;2022-09-23T15:10:26;4.18;;;3.78;;